Terminal Aerodrome Forecast
Issued by NWS Cleveland, OH

Home | Current Version | Previous Version | Graphics & Text | Print | Product List | Glossary On
Versions: 1 2 3 4 5 6 7 8 9 10 11 12 13 14 15 16 17 18 19 20 21 22 23 24
000
FTUS41 KCLE 261100 AAA
TAFMFD
TAF AMD
KMFD 261151Z 2612/2712 03006KT 2SM -RA BR OVC004
     FM261400 33007KT 2SM -RA BR OVC003
     FM262100 34006KT P6SM OVC012
     FM270000 27008KT P6SM OVC050
     FM270600 30006KT P6SM OVC050=

USA.gov is the U.S. government's official web portal to all federal, state and local government web resources and services.